Time;durP1;ratioP1;P1;durP2;ratioP2;P2;SDS_P1;SDS_P2;PMS_P1;PMS_P2;Temp;Humidity;BMP_temperature;BMP_pressure;BME280_temperature;BME280_humidity;BME280_pressure;Samples;Min_cycle;Max_cycle;Signal;HPM_P1;HPM_P2
2023/07/17 00:00:49;;;;;;;12.90;9.33;;;;;;;26.47;100.00;101432.63;2074526;28;20192;-66
2023/07/17 00:01:50;;;;;;;12.33;9.00;;;;;;;26.45;100.00;101434.47;2077370;28;20423;-65
2023/07/17 00:02:50;;;;;;;11.40;8.63;;;;;;;26.29;100.00;101404.81;2072013;28;20484;-65
2023/07/17 00:03:50;;;;;;;10.23;9.17;;;;;;;26.08;100.00;101366.69;2079957;28;20169;-65
2023/07/17 00:04:51;;;;;;;12.57;9.43;;;;;;;26.43;100.00;101428.53;2070880;28;20181;-66
2023/07/17 00:05:51;;;;;;;10.10;9.07;;;;;;;26.43;100.00;101426.47;2077918;28;20657;-65
2023/07/17 00:06:52;;;;;;;10.97;8.73;;;;;;;26.43;100.00;101429.31;2079633;28;20627;-65
2023/07/17 00:07:52;;;;;;;11.10;8.77;;;;;;;26.43;100.00;101435.00;2079702;28;20949;-65
2023/07/17 00:08:52;;;;;;;9.00;8.10;;;;;;;26.43;100.00;101417.16;2079701;28;20193;-65
2023/07/17 00:09:53;;;;;;;10.03;9.03;;;;;;;26.40;100.00;101418.97;2079632;28;20177;-65
2023/07/17 00:10:53;;;;;;;12.60;8.63;;;;;;;26.42;100.00;101421.31;2079060;28;20260;-65
2023/07/17 00:11:54;;;;;;;10.43;8.63;;;;;;;26.05;100.00;101376.22;2079621;28;20180;-65
2023/07/17 00:12:54;;;;;;;12.30;9.77;;;;;;;26.41;100.00;101417.66;2079365;28;20193;-65
2023/07/17 00:13:55;;;;;;;11.10;9.83;;;;;;;25.33;100.00;101262.09;2079470;28;20311;-65
2023/07/17 00:14:55;;;;;;;12.37;9.90;;;;;;;26.33;100.00;101418.75;2073306;28;20197;-66
2023/07/17 00:15:56;;;;;;;12.33;9.53;;;;;;;26.30;100.00;101425.50;2075573;28;20200;-65
2023/07/17 00:16:56;;;;;;;12.37;9.33;;;;;;;26.29;100.00;101421.09;2079720;28;20716;-65
2023/07/17 00:17:56;;;;;;;11.70;8.77;;;;;;;26.27;100.00;101423.69;2079670;28;20685;-66
2023/07/17 00:18:57;;;;;;;12.80;9.30;;;;;;;26.25;100.00;101418.50;2079611;28;20555;-65
2023/07/17 00:19:58;;;;;;;13.53;9.70;;;;;;;26.22;100.00;101416.75;2079688;28;20555;-65
2023/07/17 00:20:58;;;;;;;15.40;9.70;;;;;;;25.81;100.00;101355.38;2078752;28;20267;-65
2023/07/17 00:21:58;;;;;;;17.73;10.23;;;;;;;25.80;100.00;101365.19;2071881;28;20252;-65
2023/07/17 00:22:59;;;;;;;13.00;9.23;;;;;;;26.14;100.00;101421.41;2072107;28;20192;-65
2023/07/17 00:23:59;;;;;;;14.23;9.87;;;;;;;26.18;100.00;101421.13;2078485;28;20706;-65
2023/07/17 00:25:00;;;;;;;14.00;9.67;;;;;;;26.18;100.00;101421.13;2078834;28;20177;-65
2023/07/17 00:26:00;;;;;;;12.97;9.60;;;;;;;26.17;100.00;101419.59;2076896;28;26169;-65
2023/07/17 00:27:01;;;;;;;13.63;9.40;;;;;;;26.17;100.00;101425.28;2074553;28;20165;-65
2023/07/17 00:28:02;;;;;;;12.37;10.13;;;;;;;26.18;100.00;101419.06;2080910;28;20558;-65
2023/07/17 00:29:24;;;;;;;11.90;9.80;;;;;;;26.18;100.00;101427.59;2080867;28;20284;-65
2023/07/17 00:30:24;;;;;;;12.73;9.83;;;;;;;26.18;100.00;101418.28;2080613;28;20181;-65
2023/07/17 00:31:25;;;;;;;15.90;9.90;;;;;;;26.14;100.00;101423.47;2080183;28;20189;-66
2023/07/17 00:32:26;;;;;;;13.47;10.03;;;;;;;26.11;100.00;101424.50;2080864;28;20177;-65
2023/07/17 00:33:26;;;;;;;14.00;9.57;;;;;;;26.05;100.00;101424.53;2080796;28;20224;-65
2023/07/17 00:34:26;;;;;;;14.10;9.53;;;;;;;26.05;100.00;101420.91;2074574;28;20195;-65
2023/07/17 00:35:27;;;;;;;10.03;8.67;;;;;;;26.04;100.00;101425.03;2076951;28;20184;-65
2023/07/17 00:36:27;;;;;;;14.17;9.63;;;;;;;26.01;100.00;101421.19;2081000;28;20189;-65
2023/07/17 00:37:27;;;;;;;15.23;9.80;;;;;;;26.00;100.00;101424.56;2080977;28;20177;-65
2023/07/17 00:38:28;;;;;;;11.40;10.17;;;;;;;25.97;100.00;101422.72;2079591;28;20177;-65
2023/07/17 00:39:28;;;;;;;15.17;10.37;;;;;;;25.97;100.00;101426.38;2073017;28;20260;-65
2023/07/17 00:40:29;;;;;;;17.27;9.83;;;;;;;25.98;100.00;101424.28;2081085;28;20184;-65
2023/07/17 00:41:29;;;;;;;11.77;9.20;;;;;;;25.98;100.00;101418.59;2080171;28;20335;-65
2023/07/17 00:42:29;;;;;;;14.17;9.73;;;;;;;25.98;100.00;101427.91;2080607;28;20188;-65
2023/07/17 00:43:30;;;;;;;11.10;9.07;;;;;;;25.98;100.00;101418.59;2081071;28;20208;-65
2023/07/17 00:44:31;;;;;;;10.37;8.57;;;;;;;25.90;100.00;101417.56;2080283;28;20189;-66
2023/07/17 00:45:33;;;;;;;12.43;8.83;;;;;;;25.98;100.00;101430.75;2080015;28;20171;-65
2023/07/17 00:46:34;;;;;;;12.17;9.27;;;;;;;26.00;100.00;101428.16;2080969;28;20185;-66
2023/07/17 00:47:36;;;;;;;10.20;9.20;;;;;;;25.98;100.00;101438.47;2081211;28;20181;-65
2023/07/17 00:48:36;;;;;;;11.53;9.73;;;;;;;26.01;100.00;101431.78;2080974;28;20259;-66
2023/07/17 00:49:37;;;;;;;11.97;8.60;;;;;;;25.38;100.00;101328.66;2080272;28;20201;-65
2023/07/17 00:50:38;;;;;;;10.80;9.03;;;;;;;26.01;100.00;101428.94;2080616;28;20630;-66
2023/07/17 00:51:41;;;;;;;9.17;8.23;;;;;;;25.99;100.00;101432.28;2080187;28;20591;-66
2023/07/17 00:52:42;;;;;;;17.13;10.23;;;;;;;25.98;100.00;101435.63;2080591;28;20188;-65
2023/07/17 00:53:43;;;;;;;17.77;10.57;;;;;;;25.93;100.00;101436.41;2080847;28;20761;-65
2023/07/17 00:54:44;;;;;;;14.53;10.20;;;;;;;25.94;100.00;101432.31;2080591;28;20251;-65
2023/07/17 00:55:45;;;;;;;15.73;9.47;;;;;;;25.93;100.00;101430.75;2080294;28;20181;-65
2023/07/17 00:56:46;;;;;;;15.60;10.03;;;;;;;25.93;100.00;101444.94;2080485;28;20681;-65
2023/07/17 00:57:50;;;;;;;14.63;10.07;;;;;;;25.93;100.00;101430.75;2081134;28;20169;-65
2023/07/17 00:58:51;;;;;;;13.93;10.03;;;;;;;25.93;100.00;101431.53;2081228;28;20169;-65
2023/07/17 00:59:52;;;;;;;11.50;10.30;;;;;;;25.91;100.00;101436.16;2080930;28;20716;-65
2023/07/17 01:00:53;;;;;;;15.43;10.67;;;;;;;25.20;100.00;101329.13;2080728;28;20625;-65
2023/07/17 01:01:54;;;;;;;15.13;10.07;;;;;;;25.90;100.00;101434.59;2080631;28;20196;-66
2023/07/17 01:02:57;;;;;;;14.23;9.40;;;;;;;25.24;100.00;101341.00;2080341;28;20243;-65
2023/07/17 01:04:00;;;;;;;12.53;10.13;;;;;;;25.92;100.00;101430.00;2077441;28;20189;-66
2023/07/17 01:05:01;;;;;;;10.93;9.90;;;;;;;25.89;100.00;101433.81;2074729;28;20240;-65
2023/07/17 01:06:02;;;;;;;17.13;10.17;;;;;;;25.87;100.00;101436.41;2080702;28;20181;-66
2023/07/17 01:07:03;;;;;;;12.07;9.63;;;;;;;25.72;100.00;101423.78;2080092;28;20180;-65
2023/07/17 01:08:03;;;;;;;10.50;9.50;;;;;;;25.11;100.00;101330.16;2081007;28;20252;-65
2023/07/17 01:09:06;;;;;;;10.93;9.77;;;;;;;25.75;100.00;101434.88;2073214;28;20201;-65
2023/07/17 01:10:06;;;;;;;9.77;8.83;;;;;;;25.66;100.00;101418.13;2079334;28;20201;-65
2023/07/17 01:11:07;;;;;;;10.73;8.50;;;;;;;25.67;100.00;101425.34;2074531;28;20189;-65
2023/07/17 01:12:08;;;;;;;12.10;9.77;;;;;;;25.53;100.00;101412.19;2076800;28;20222;-65
2023/07/17 01:13:11;;;;;;;11.23;10.13;;;;;;;25.53;100.00;101434.16;2077118;28;20197;-65
2023/07/17 01:14:16;;;;;;;11.87;9.60;;;;;;;25.54;100.00;101444.19;2074761;28;20655;-65
2023/07/17 01:15:16;;;;;;;11.10;10.00;;;;;;;25.44;100.00;101411.69;2080552;28;20191;-65
2023/07/17 01:16:17;;;;;;;12.03;10.13;;;;;;;25.52;100.00;101438.25;2080655;28;20188;-65
2023/07/17 01:17:18;;;;;;;16.53;10.27;;;;;;;25.51;100.00;101433.88;2079849;28;20181;-65
2023/07/17 01:18:18;;;;;;;15.93;11.27;;;;;;;25.51;100.00;101439.53;2072222;28;20255;-65
2023/07/17 01:19:18;;;;;;;18.63;10.60;;;;;;;25.43;100.00;101430.00;2079559;28;20200;-66
2023/07/17 01:20:19;;;;;;;21.17;11.00;;;;;;;25.46;100.00;101437.47;2074922;28;20184;-65
2023/07/17 01:21:26;;;;;;;15.40;10.33;;;;;;;24.96;100.00;101363.69;2076605;28;20669;-65
2023/07/17 01:22:31;;;;;;;14.77;10.13;;;;;;;25.41;100.00;101436.19;2080011;28;20243;-65
2023/07/17 01:23:32;;;;;;;14.97;10.40;;;;;;;25.37;100.00;101432.06;2080606;28;20197;-66
2023/07/17 01:24:32;;;;;;;14.87;10.23;;;;;;;25.36;100.00;101436.19;2080176;28;20192;-65
2023/07/17 01:25:33;;;;;;;11.80;10.00;;;;;;;25.39;100.00;101441.59;2080406;28;20303;-65
2023/07/17 01:26:33;;;;;;;12.37;10.17;;;;;;;25.35;100.00;101440.31;2080513;28;20184;-65
2023/07/17 01:27:34;;;;;;;14.83;10.63;;;;;;;25.35;100.00;101438.28;2080645;28;20185;-65
2023/07/17 01:28:34;;;;;;;12.50;10.57;;;;;;;25.33;100.00;101438.00;2080131;28;20279;-65
2023/07/17 01:29:34;;;;;;;11.37;10.10;;;;;;;25.30;100.00;101439.03;2080791;28;20189;-65
2023/07/17 01:30:35;;;;;;;11.90;10.20;;;;;;;25.28;100.00;101438.00;2080538;28;20197;-65
2023/07/17 01:31:38;;;;;;;12.00;10.40;;;;;;;25.31;100.00;101439.78;2080099;28;20221;-65
2023/07/17 01:32:38;;;;;;;15.47;11.10;;;;;;;25.26;100.00;101441.34;2080185;28;20189;-65
2023/07/17 01:33:38;;;;;;;14.00;10.77;;;;;;;24.66;100.00;101351.25;2080425;28;20192;-66
2023/07/17 01:34:41;;;;;;;12.03;10.43;;;;;;;25.27;100.00;101439.28;2080017;28;20181;-65
2023/07/17 01:35:41;;;;;;;14.57;11.73;;;;;;;25.28;100.00;101438.00;2080361;28;20173;-65
2023/07/17 01:36:42;;;;;;;13.43;11.00;;;;;;;25.26;100.00;101432.84;2080759;28;20188;-65
2023/07/17 01:37:42;;;;;;;13.93;11.00;;;;;;;25.26;100.00;101435.69;2079624;28;20486;-65
2023/07/17 01:38:43;;;;;;;14.63;10.60;;;;;;;25.01;100.00;101393.31;2079719;28;20304;-65
2023/07/17 01:39:43;;;;;;;14.73;10.00;;;;;;;25.19;100.00;101424.78;2080477;28;20184;-65
2023/07/17 01:40:44;;;;;;;13.27;10.73;;;;;;;25.30;100.00;101438.25;2080672;28;20181;-65
2023/07/17 01:41:44;;;;;;;13.03;10.53;;;;;;;25.31;100.00;101434.13;2077410;28;20187;-65
2023/07/17 01:42:44;;;;;;;16.20;10.30;;;;;;;25.11;100.00;101405.97;2073237;28;20730;-65
2023/07/17 01:43:45;;;;;;;15.57;10.67;;;;;;;25.28;100.00;101433.09;2080109;28;20188;-65
2023/07/17 01:44:45;;;;;;;19.87;10.57;;;;;;;25.28;100.00;101444.44;2071533;28;20218;-65
2023/07/17 01:45:46;;;;;;;12.57;10.60;;;;;;;25.23;100.00;101427.41;2079568;28;20189;-66
2023/07/17 01:46:47;;;;;;;13.13;10.20;;;;;;;25.22;100.00;101435.13;2074242;28;20488;-65
2023/07/17 01:47:47;;;;;;;12.40;10.80;;;;;;;25.25;100.00;101439.81;2077506;28;20690;-65
2023/07/17 01:48:47;;;;;;;12.83;10.33;;;;;;;25.14;100.00;101413.47;2076513;28;20186;-65
2023/07/17 01:49:48;;;;;;;12.87;10.63;;;;;;;25.22;100.00;101432.28;2074462;28;20181;-65
2023/07/17 01:50:48;;;;;;;13.77;10.13;;;;;;;25.28;100.00;101438.00;2078877;28;20554;-65
2023/07/17 01:51:49;;;;;;;12.07;9.93;;;;;;;25.26;100.00;101437.72;2072079;28;20173;-65
2023/07/17 01:52:49;;;;;;;14.47;10.13;;;;;;;25.28;100.00;101432.34;2080080;28;20497;-65
2023/07/17 01:53:50;;;;;;;12.63;10.30;;;;;;;25.26;100.00;101440.56;2072476;28;20308;-65
2023/07/17 01:54:50;;;;;;;15.23;10.37;;;;;;;25.24;100.00;101440.28;2078346;28;20685;-65
2023/07/17 01:55:50;;;;;;;13.67;10.57;;;;;;;25.26;100.00;101444.19;2075012;28;20196;-65
2023/07/17 01:56:51;;;;;;;13.93;10.10;;;;;;;25.24;100.00;101455.22;2076507;28;20196;-65
2023/07/17 01:57:52;;;;;;;16.27;10.17;;;;;;;25.26;100.00;101455.53;2077351;28;20220;-65
2023/07/17 01:58:52;;;;;;;14.73;9.60;;;;;;;25.19;100.00;101455.25;2074152;28;20178;-65
2023/07/17 01:59:52;;;;;;;14.47;9.63;;;;;;;25.21;100.00;101459.09;2079796;28;20184;-65
2023/07/17 02:00:56;;;;;;;16.50;9.73;;;;;;;25.21;100.00;101461.16;2079902;28;20173;-65
2023/07/17 02:01:56;;;;;;;12.57;9.53;;;;;;;25.17;100.00;101452.16;2080523;28;20710;-65
2023/07/17 02:02:57;;;;;;;12.13;9.43;;;;;;;25.22;100.00;101454.19;2079759;28;20181;-65
2023/07/17 02:03:57;;;;;;;11.83;9.30;;;;;;;25.24;100.00;101451.63;2080341;28;20216;-65
2023/07/17 02:04:57;;;;;;;10.50;9.50;;;;;;;25.23;100.00;101456.53;2079958;28;20173;-65
2023/07/17 02:05:58;;;;;;;10.97;9.20;;;;;;;25.23;100.00;101452.94;2080266;28;20639;-65
2023/07/17 02:06:58;;;;;;;10.27;8.73;;;;;;;25.22;100.00;101454.19;2080050;28;20193;-66
2023/07/17 02:07:59;;;;;;;10.57;9.30;;;;;;;25.23;100.00;101450.84;2079905;28;20706;-65
2023/07/17 02:08:59;;;;;;;10.83;8.93;;;;;;;25.24;100.00;101455.22;2080062;28;20276;-65
2023/07/17 02:09:59;;;;;;;10.77;9.67;;;;;;;25.19;100.00;101452.41;2080359;28;20199;-65
2023/07/17 02:11:00;;;;;;;10.67;9.57;;;;;;;25.19;100.00;101461.66;2079034;28;20173;-65
2023/07/17 02:12:00;;;;;;;11.27;10.17;;;;;;;25.17;100.00;101460.66;2080239;28;20506;-65
2023/07/17 02:13:01;;;;;;;10.30;9.10;;;;;;;25.10;100.00;101467.59;2079289;28;20376;-65
2023/07/17 02:14:02;;;;;;;11.67;9.60;;;;;;;25.07;100.00;101460.13;2079904;28;20207;-66
2023/07/17 02:15:02;;;;;;;11.07;9.20;;;;;;;25.07;100.00;101462.94;2079280;28;20207;-65
2023/07/17 02:16:03;;;;;;;9.43;8.37;;;;;;;25.01;100.00;101445.16;2079971;28;20173;-65
2023/07/17 02:17:04;;;;;;;11.00;9.53;;;;;;;25.11;100.00;101465.53;2080470;28;20177;-65
2023/07/17 02:18:04;;;;;;;12.57;9.27;;;;;;;25.13;100.00;101466.56;2080210;28;20177;-65
2023/07/17 02:19:04;;;;;;;11.07;9.93;;;;;;;24.70;100.00;101396.34;2080417;28;20224;-65
2023/07/17 02:20:10;;;;;;;11.77;9.83;;;;;;;25.14;100.00;101465.31;2080310;28;20275;-65
2023/07/17 02:21:10;;;;;;;11.63;10.43;;;;;;;25.17;100.00;101464.25;2079247;28;20594;-65
2023/07/17 02:22:11;;;;;;;12.47;10.70;;;;;;;24.67;100.00;101389.66;2079740;28;20217;-65
2023/07/17 02:23:11;;;;;;;12.83;10.03;;;;;;;25.03;100.00;101441.81;2079612;28;20264;-65
2023/07/17 02:24:11;;;;;;;13.07;9.90;;;;;;;25.23;100.00;101469.94;2078721;28;20215;-66
2023/07/17 02:25:12;;;;;;;10.30;9.07;;;;;;;24.81;100.00;101410.56;2071987;28;20668;-65
2023/07/17 02:26:12;;;;;;;12.03;10.23;;;;;;;25.21;100.00;101473.28;2072093;28;20210;-65
2023/07/17 02:27:13;;;;;;;11.10;9.50;;;;;;;25.20;100.00;101476.63;2079094;28;20189;-65
2023/07/17 02:28:15;;;;;;;11.63;9.40;;;;;;;25.20;100.00;101477.41;2080167;28;20219;-65
2023/07/17 02:29:15;;;;;;;11.97;9.53;;;;;;;25.19;100.00;101473.00;2080131;28;20192;-65
2023/07/17 02:30:15;;;;;;;13.63;10.70;;;;;;;25.18;100.00;101479.97;2080158;28;20185;-66
2023/07/17 02:31:16;;;;;;;10.53;9.53;;;;;;;25.19;100.00;101473.00;2076888;28;20719;-66
2023/07/17 02:32:16;;;;;;;11.27;9.87;;;;;;;25.18;100.00;101479.97;2072304;28;20255;-65
2023/07/17 02:33:17;;;;;;;11.87;10.50;;;;;;;24.44;100.00;101364.56;2079541;28;20181;-65
2023/07/17 02:34:17;;;;;;;18.73;11.10;;;;;;;25.10;100.00;101481.00;2071511;28;20615;-66
2023/07/17 02:35:18;;;;;;;15.87;10.60;;;;;;;25.11;100.00;101476.88;2086158;28;20188;-65
2023/07/17 02:36:19;;;;;;;16.40;10.20;;;;;;;25.10;100.00;101484.63;2081046;28;20181;-65
2023/07/17 02:37:19;;;;;;;19.00;10.93;;;;;;;25.06;100.00;101474.78;2080140;28;20188;-65
2023/07/17 02:38:20;;;;;;;14.77;10.43;;;;;;;24.72;100.00;101433.50;2080021;28;20209;-65
2023/07/17 02:39:23;;;;;;;19.23;10.30;;;;;;;25.01;100.00;101484.06;2077074;28;20193;-65
2023/07/17 02:40:24;;;;;;;16.47;9.90;;;;;;;25.00;100.00;101482.53;2073584;28;20209;-65
2023/07/17 02:41:24;;;;;;;15.10;9.87;;;;;;;24.36;100.00;101392.63;2078491;28;20268;-65
2023/07/17 02:42:24;;;;;;;13.87;10.60;;;;;;;24.93;100.00;101480.19;2078486;28;20559;-65
2023/07/17 02:43:25;;;;;;;12.73;9.90;;;;;;;24.92;100.00;101487.91;2071716;28;20177;-65
2023/07/17 02:44:25;;;;;;;16.20;10.43;;;;;;;24.91;100.00;101486.38;2078384;28;20224;-65
2023/07/17 02:45:25;;;;;;;14.30;10.47;;;;;;;24.89;100.00;101477.63;2079808;28;20177;-66
2023/07/17 02:46:26;;;;;;;13.23;10.17;;;;;;;24.44;100.00;101407.06;2079992;28;20185;-65
2023/07/17 02:47:26;;;;;;;12.77;9.83;;;;;;;24.95;100.00;101488.94;2076546;28;20200;-65
2023/07/17 02:48:27;;;;;;;12.10;9.33;;;;;;;24.98;100.00;101479.44;2074029;28;20557;-65
2023/07/17 02:49:27;;;;;;;12.90;11.17;;;;;;;24.98;100.00;101485.09;2079860;28;20568;-65
2023/07/17 02:50:27;;;;;;;11.83;9.80;;;;;;;25.00;100.00;101485.34;2079846;28;20181;-65
2023/07/17 02:51:28;;;;;;;12.80;10.30;;;;;;;25.01;100.00;101481.22;2079615;28;20268;-65
2023/07/17 02:52:28;;;;;;;14.50;10.60;;;;;;;25.01;100.00;101489.75;2079509;28;20243;-65
2023/07/17 02:53:30;;;;;;;15.77;10.57;;;;;;;25.03;100.00;101493.63;2078962;28;20189;-66
2023/07/17 02:54:30;;;;;;;13.40;9.67;;;;;;;25.01;100.00;101486.91;2078144;28;20654;-65
2023/07/17 02:55:31;;;;;;;16.83;10.17;;;;;;;25.02;100.00;101491.31;2078642;28;20636;-65
2023/07/17 02:56:31;;;;;;;17.57;10.70;;;;;;;25.00;100.00;101482.53;2078544;28;20193;-65
2023/07/17 02:57:34;;;;;;;20.67;10.97;;;;;;;25.03;100.00;101484.34;2077874;28;20177;-66
2023/07/17 02:58:41;;;;;;;18.53;10.43;;;;;;;25.03;100.00;101484.34;2072644;28;20377;-65
2023/07/17 02:59:41;;;;;;;18.43;11.20;;;;;;;25.04;100.00;101488.72;2080013;28;20638;-65
2023/07/17 03:00:42;;;;;;;24.00;11.97;;;;;;;25.03;100.00;101493.63;2080113;28;20566;-65
2023/07/17 03:01:43;;;;;;;25.07;12.00;;;;;;;24.29;100.00;101376.13;2079697;28;20267;-66
2023/07/17 03:02:46;;;;;;;21.53;11.00;;;;;;;25.09;100.00;101488.75;2073017;28;20186;-65
2023/07/17 03:03:46;;;;;;;25.50;10.87;;;;;;;24.65;100.00;101420.56;2076230;28;20193;-65
2023/07/17 03:04:47;;;;;;;18.63;11.07;;;;;;;25.13;100.00;101486.41;2072966;28;20240;-65
2023/07/17 03:05:47;;;;;;;20.53;10.27;;;;;;;25.14;100.00;101495.72;2073833;28;20185;-65
2023/07/17 03:06:48;;;;;;;22.07;11.43;;;;;;;25.14;100.00;101492.88;2076982;28;20737;-65
2023/07/17 03:07:49;;;;;;;18.03;10.13;;;;;;;25.07;100.00;101499.06;2078360;28;20177;-65
2023/07/17 03:08:49;;;;;;;15.40;9.50;;;;;;;24.21;100.00;101368.63;2078200;28;20646;-65
2023/07/17 03:09:50;;;;;;;13.40;9.00;;;;;;;25.04;100.00;101492.34;2070379;28;20172;-66
2023/07/17 03:10:50;;;;;;;14.73;9.13;;;;;;;25.03;100.00;101492.84;2077268;28;20629;-66
2023/07/17 03:11:50;;;;;;;16.23;10.13;;;;;;;25.04;100.00;101489.50;2071875;28;20190;-65
2023/07/17 03:12:51;;;;;;;12.60;9.10;;;;;;;25.04;100.00;101491.56;2074733;28;20272;-65
2023/07/17 03:13:51;;;;;;;15.63;8.97;;;;;;;25.06;100.00;101492.59;2074109;28;20456;-66
2023/07/17 03:14:52;;;;;;;19.20;10.07;;;;;;;25.07;100.00;101507.56;2073331;28;20300;-65
2023/07/17 03:15:55;;;;;;;19.77;10.80;;;;;;;25.06;100.00;101497.50;2076941;28;20231;-65
2023/07/17 03:16:56;;;;;;;18.67;10.57;;;;;;;25.07;100.00;101494.16;2070707;28;20185;-65
2023/07/17 03:17:56;;;;;;;18.43;10.43;;;;;;;25.05;100.00;101491.06;2078592;28;20191;-66
2023/07/17 03:18:57;;;;;;;21.17;10.83;;;;;;;25.04;100.00;101497.22;2078064;28;20189;-65
2023/07/17 03:19:58;;;;;;;23.97;10.93;;;;;;;25.01;100.00;101495.41;2078407;28;20204;-65
2023/07/17 03:20:58;;;;;;;22.37;11.23;;;;;;;24.99;100.00;101490.28;2078374;28;20278;-65
2023/07/17 03:21:59;;;;;;;18.13;10.90;;;;;;;24.99;100.00;101486.66;2079825;28;20192;-65
2023/07/17 03:22:59;;;;;;;17.60;10.90;;;;;;;24.10;100.00;101363.66;2079322;28;20185;-65
2023/07/17 03:23:59;;;;;;;16.13;11.03;;;;;;;24.93;100.00;101497.22;2079683;28;20180;-65
2023/07/17 03:25:01;;;;;;;16.13;10.17;;;;;;;24.93;100.00;101488.69;2078553;28;20184;-65
2023/07/17 03:26:02;;;;;;;20.27;11.50;;;;;;;24.86;100.00;101494.84;2079774;28;20501;-66
2023/07/17 03:27:04;;;;;;;15.27;11.20;;;;;;;24.87;100.00;101496.41;2080074;28;20173;-65
2023/07/17 03:28:04;;;;;;;13.23;10.43;;;;;;;24.86;100.00;101492.00;2079390;28;20293;-65
2023/07/17 03:29:04;;;;;;;12.70;10.47;;;;;;;24.90;100.00;101492.53;2079216;28;20201;-65
2023/07/17 03:30:06;;;;;;;13.33;10.87;;;;;;;24.88;100.00;101493.03;2078538;28;20203;-65
2023/07/17 03:31:07;;;;;;;14.20;10.63;;;;;;;24.90;100.00;101495.38;2077996;28;20200;-65
2023/07/17 03:32:08;;;;;;;13.87;11.23;;;;;;;24.62;100.00;101455.59;2073936;28;20193;-65
2023/07/17 03:33:08;;;;;;;16.43;10.90;;;;;;;24.93;100.00;101497.97;2078772;28;20208;-65
2023/07/17 03:34:09;;;;;;;12.10;9.80;;;;;;;24.93;100.00;101497.97;2079229;28;20335;-65
2023/07/17 03:35:09;;;;;;;14.40;10.60;;;;;;;24.95;100.00;101488.94;2079526;28;20185;-65
2023/07/17 03:36:09;;;;;;;16.63;10.33;;;;;;;24.92;100.00;101478.66;2071038;28;20182;-66
2023/07/17 03:37:11;;;;;;;13.87;9.90;;;;;;;24.99;100.00;101506.50;2078364;28;20183;-65
2023/07/17 03:38:11;;;;;;;13.53;9.90;;;;;;;25.02;100.00;101491.31;2079791;28;20645;-66
2023/07/17 03:39:12;;;;;;;10.50;9.47;;;;;;;25.05;100.00;101493.09;2079864;28;20188;-65
2023/07/17 03:40:12;;;;;;;17.90;10.80;;;;;;;25.06;100.00;101498.28;2076960;28;20190;-65
2023/07/17 03:41:13;;;;;;;11.33;10.07;;;;;;;25.07;100.00;101490.56;2078489;28;20181;-65
2023/07/17 03:42:14;;;;;;;14.37;11.10;;;;;;;24.54;100.00;101411.22;2077585;28;20191;-65
2023/07/17 03:43:14;;;;;;;12.97;9.67;;;;;;;25.11;100.00;101497.50;2070701;28;20667;-65
2023/07/17 03:44:15;;;;;;;12.00;9.77;;;;;;;24.44;100.00;101388.03;2078487;28;20551;-65
2023/07/17 03:45:15;;;;;;;13.37;9.37;;;;;;;25.12;100.00;101498.28;2074977;28;20630;-66
2023/07/17 03:46:16;;;;;;;11.60;9.27;;;;;;;25.14;100.00;101498.56;2079358;28;20203;-65
2023/07/17 03:47:16;;;;;;;10.40;9.27;;;;;;;25.15;100.00;101494.41;2074617;28;20277;-66
2023/07/17 03:48:17;;;;;;;13.73;9.53;;;;;;;25.15;100.00;101486.69;2075349;28;20661;-65
2023/07/17 03:49:17;;;;;;;11.13;9.80;;;;;;;25.18;100.00;101491.31;2079859;28;20281;-65
2023/07/17 03:50:17;;;;;;;11.77;9.87;;;;;;;25.20;100.00;101490.81;2079840;28;20231;-65
2023/07/17 03:51:18;;;;;;;12.20;9.30;;;;;;;25.21;100.00;101492.38;2078876;28;20197;-65
2023/07/17 03:52:18;;;;;;;15.80;10.33;;;;;;;25.24;100.00;101497.03;2070331;28;20174;-65
2023/07/17 03:53:18;;;;;;;11.57;10.07;;;;;;;25.24;100.00;101497.03;2076968;28;20285;-65
2023/07/17 03:54:19;;;;;;;15.07;10.70;;;;;;;25.24;100.00;101494.94;2077077;28;20208;-65
2023/07/17 03:55:19;;;;;;;18.67;10.90;;;;;;;25.15;100.00;101489.53;2077909;28;20491;-65
2023/07/17 03:56:20;;;;;;;24.67;11.70;;;;;;;25.23;100.00;101496.25;2077620;28;20471;-65
2023/07/17 03:57:21;;;;;;;22.60;11.17;;;;;;;25.24;100.00;101505.53;2076911;28;20702;-65
2023/07/17 03:58:22;;;;;;;25.47;11.73;;;;;;;25.23;100.00;101499.06;2077837;28;20184;-65
2023/07/17 03:59:24;;;;;;;26.00;11.30;;;;;;;25.23;100.00;101501.16;2077865;28;20654;-65
2023/07/17 04:00:24;;;;;;;23.83;11.03;;;;;;;25.25;100.00;101498.56;2077908;28;20663;-66
2023/07/17 04:01:24;;;;;;;25.43;11.37;;;;;;;25.29;100.00;101504.81;2077414;28;20574;-65
2023/07/17 04:02:25;;;;;;;21.67;10.43;;;;;;;24.63;100.00;101391.19;2077474;28;20196;-65
2023/07/17 04:03:26;;;;;;;17.40;10.03;;;;;;;25.35;100.00;101502.75;2078072;28;20186;-66
2023/07/17 04:04:26;;;;;;;14.97;9.47;;;;;;;25.35;100.00;101499.91;2078068;28;20280;-65
2023/07/17 04:05:26;;;;;;;14.80;9.60;;;;;;;25.38;100.00;101504.56;2078795;28;20201;-65
2023/07/17 04:06:27;;;;;;;11.77;10.07;;;;;;;25.39;100.00;101500.44;2078873;28;20172;-66
2023/07/17 04:07:27;;;;;;;11.83;10.33;;;;;;;25.43;100.00;101507.38;2078321;28;20189;-65
2023/07/17 04:08:28;;;;;;;12.47;10.20;;;;;;;25.45;100.00;101516.19;2078744;28;20509;-65
2023/07/17 04:09:28;;;;;;;11.20;9.40;;;;;;;25.45;100.00;101506.88;2078927;28;20199;-65
2023/07/17 04:10:28;;;;;;;11.33;9.17;;;;;;;25.47;100.00;101507.91;2080471;28;20666;-65
2023/07/17 04:11:29;;;;;;;11.37;9.63;;;;;;;25.47;100.00;101507.91;2079482;28;20606;-65
2023/07/17 04:12:29;;;;;;;16.97;10.50;;;;;;;25.48;100.00;101511.53;2080157;28;20742;-66
2023/07/17 04:13:30;;;;;;;11.00;9.73;;;;;;;25.54;100.00;101515.16;2080665;28;20650;-65
2023/07/17 04:14:31;;;;;;;12.43;10.43;;;;;;;25.54;100.00;101515.16;2079566;28;20553;-65
2023/07/17 04:15:31;;;;;;;11.63;10.50;;;;;;;25.54;100.00;101523.66;2080291;28;20177;-65
2023/07/17 04:16:33;;;;;;;13.87;10.60;;;;;;;25.55;100.00;101522.38;2079889;28;20256;-65
2023/07/17 04:17:34;;;;;;;12.10;10.37;;;;;;;25.56;100.00;101526.75;2088042;28;20658;-65
2023/07/17 04:18:34;;;;;;;15.20;10.60;;;;;;;25.53;100.00;101520.03;2087222;28;20188;-66
2023/07/17 04:19:34;;;;;;;7.37;4.50;;;;;;;25.79;100.00;101534.75;2081040;28;20544;-61
2023/07/17 04:20:39;;;;;;;8.13;7.10;;;;;;;26.02;100.00;101473.88;2079727;28;20197;-61
2023/07/17 04:21:40;;;;;;;7.67;6.87;;;;;;;26.63;100.00;101527.72;2078467;28;20713;-60
2023/07/17 04:22:40;;;;;;;11.60;8.33;;;;;;;26.86;100.00;101523.50;2079472;28;20601;-58
2023/07/17 04:23:41;;;;;;;11.07;7.87;;;;;;;27.00;100.00;101516.69;2078794;28;20290;-59
2023/07/17 04:24:41;;;;;;;9.87;7.80;;;;;;;27.19;100.00;101512.75;2078445;28;20223;-60
2023/07/17 04:25:41;;;;;;;8.77;6.90;;;;;;;27.32;100.00;101504.38;2078589;28;20194;-59
2023/07/17 04:26:42;;;;;;;11.37;6.93;;;;;;;27.36;100.00;101464.22;2080191;28;20204;-60
2023/07/17 04:27:43;;;;;;;9.95;6.65;;;;;;;27.79;100.00;101507.94;2080378;28;20235;-59
2023/07/17 04:28:43;;;;;;;12.80;9.30;;;;;;;28.05;100.00;101508.19;2079779;28;20651;-59
2023/07/17 04:29:44;;;;;;;13.00;9.40;;;;;;;27.47;100.00;101402.28;2079902;28;20302;-59
2023/07/17 04:30:45;;;;;;;12.77;10.48;;;;;;;27.69;100.00;101441.94;2077351;28;20216;-57
2023/07/17 04:31:45;;;;;;;15.07;9.68;;;;;;;28.11;100.00;101509.69;2080068;28;20558;-57
2023/07/17 04:32:46;;;;;;;11.25;8.43;;;;;;;28.42;100.00;101514.06;2080239;28;20216;-57
2023/07/17 04:33:46;;;;;;;9.77;8.88;;;;;;;28.53;100.00;101506.16;2080340;28;20189;-56
2023/07/17 04:34:47;;;;;;;10.63;8.45;;;;;;;28.76;100.00;101504.56;2079470;28;20359;-57